Time;durP1;ratioP1;P1;durP2;ratioP2;P2;SDS_P1;SDS_P2;PMS_P1;PMS_P2;Temp;Humidity;BMP_temperature;BMP_pressure;BME280_temperature;BME280_humidity;BME280_pressure;Samples;Min_cycle;Max_cycle;Signal;HPM_P1;HPM_P2
2023/04/10 00:01:18;;;;;;;12.38;7.90;;;;;;;8.93;57.46;95073.75;5004909;28;20054;-81
2023/04/10 00:03:43;;;;;;;10.70;7.47;;;;;;;8.92;57.37;95074.97;5003372;28;20030;-80
2023/04/10 00:06:08;;;;;;;10.93;7.30;;;;;;;8.91;57.58;95070.69;5004984;28;20030;-80
2023/04/10 00:08:34;;;;;;;11.18;7.70;;;;;;;8.90;57.76;95069.91;5003727;28;20022;-80
2023/04/10 00:10:59;;;;;;;11.38;8.05;;;;;;;8.94;57.92;95067.09;5005329;28;20022;-79
2023/04/10 00:13:25;;;;;;;10.63;7.43;;;;;;;8.95;57.79;95068.66;5008274;28;20036;-79
2023/04/10 00:15:50;;;;;;;10.38;7.45;;;;;;;8.93;57.57;95079.25;5008460;28;20032;-80
2023/04/10 00:18:16;;;;;;;10.27;7.25;;;;;;;8.93;57.66;95062.78;5004836;28;20040;-79
2023/04/10 00:20:42;;;;;;;11.38;8.60;;;;;;;8.90;57.63;95058.94;5005332;28;20030;-79
2023/04/10 00:23:07;;;;;;;12.50;8.30;;;;;;;8.90;57.31;95058.94;5004689;28;20034;-79
2023/04/10 00:25:33;;;;;;;11.35;7.45;;;;;;;8.81;57.29;95058.72;5004743;28;20436;-79
2023/04/10 00:27:58;;;;;;;10.43;7.95;;;;;;;8.84;57.24;95057.91;5003332;28;20029;-79
2023/04/10 00:30:24;;;;;;;9.85;7.40;;;;;;;8.83;56.78;95052.81;5004716;28;20022;-79
2023/04/10 00:32:49;;;;;;;9.88;7.28;;;;;;;8.87;56.52;95056.25;5004597;28;20030;-79
2023/04/10 00:35:15;;;;;;;10.27;7.40;;;;;;;8.80;56.29;95056.41;5003199;28;20057;-79
2023/04/10 00:37:41;;;;;;;9.85;6.75;;;;;;;8.80;56.00;95053.69;5004709;28;20033;-79
2023/04/10 00:40:07;;;;;;;11.38;7.35;;;;;;;8.83;55.46;95052.81;5003015;28;20022;-79
2023/04/10 00:42:32;;;;;;;9.73;6.57;;;;;;;8.74;54.96;95050.66;5004817;28;20026;-79
2023/04/10 00:44:58;;;;;;;9.55;6.65;;;;;;;8.73;54.28;95049.88;5004208;28;20022;-79
2023/04/10 00:47:24;;;;;;;7.38;6.00;;;;;;;8.71;54.11;95048.75;5004862;28;20037;-79
2023/04/10 00:49:50;;;;;;;7.38;5.10;;;;;;;8.71;53.45;95051.47;4986753;28;20034;-80
2023/04/10 00:52:15;;;;;;;8.02;5.40;;;;;;;8.65;53.42;95050.44;5003396;28;20469;-79
2023/04/10 00:54:41;;;;;;;7.97;5.07;;;;;;;8.75;53.51;95052.19;5002913;28;20052;-79
2023/04/10 00:57:06;;;;;;;7.63;5.95;;;;;;;8.74;53.94;95045.16;5002832;28;20038;-79
2023/04/10 00:59:32;;;;;;;7.80;5.63;;;;;;;8.74;54.47;95045.94;5003536;28;20048;-79
2023/04/10 01:01:58;;;;;;;8.10;5.68;;;;;;;8.64;55.38;95038.69;5004797;28;20036;-79
2023/04/10 01:04:25;;;;;;;8.38;5.55;;;;;;;8.76;55.56;95054.50;5006877;28;20026;-79
2023/04/10 01:07:13;;;;;;;8.02;6.63;;;;;;;8.73;55.60;95043.63;5007287;28;20045;-79
2023/04/10 01:09:54;;;;;;;8.50;5.85;;;;;;;8.77;56.15;95041.56;5012998;28;20489;-79
2023/04/10 01:12:24;;;;;;;9.38;5.95;;;;;;;8.79;56.42;95033.72;5008586;28;20038;-80
2023/04/10 01:15:01;;;;;;;9.02;5.95;;;;;;;8.77;57.44;95028.66;5006221;28;20040;-79
2023/04/10 01:17:31;;;;;;;7.43;5.57;;;;;;;8.64;58.34;95035.19;5006992;28;20030;-79
2023/04/10 01:20:15;;;;;;;8.80;6.30;;;;;;;8.61;58.49;95027.81;5006262;28;20026;-79
2023/04/10 01:22:40;;;;;;;8.55;5.63;;;;;;;8.56;58.36;95036.53;5006207;28;20113;-79
2023/04/10 01:25:31;;;;;;;7.93;5.57;;;;;;;8.60;57.57;95037.22;5007904;28;20063;-79
2023/04/10 01:28:12;;;;;;;8.15;5.55;;;;;;;8.58;57.22;95029.44;5007350;28;20029;-79
2023/04/10 01:30:38;;;;;;;8.57;5.63;;;;;;;8.57;57.77;95029.84;5023045;28;20026;-79
2023/04/10 01:33:07;;;;;;;7.80;6.15;;;;;;;8.63;57.84;95033.66;5006014;28;20589;-79
2023/04/10 01:35:32;;;;;;;7.50;5.28;;;;;;;8.63;57.60;95023.44;5006210;28;20494;-78
2023/04/10 01:38:01;;;;;;;7.65;5.80;;;;;;;8.65;57.48;95026.53;5006169;28;20026;-79
2023/04/10 01:40:27;;;;;;;8.70;5.45;;;;;;;8.70;57.99;95028.00;5005910;28;20026;-79
2023/04/10 01:42:55;;;;;;;7.47;5.93;;;;;;;8.70;58.62;95022.53;5006180;28;20037;-79
2023/04/10 01:45:24;;;;;;;8.00;5.75;;;;;;;8.69;58.87;95026.47;5039290;28;20022;-78
2023/04/10 01:47:50;;;;;;;8.18;6.30;;;;;;;8.66;58.83;95028.09;5005869;28;20026;-79
2023/04/10 01:50:16;;;;;;;8.80;6.13;;;;;;;8.73;59.07;95027.19;5007447;28;20033;-79
2023/04/10 01:52:43;;;;;;;7.68;5.90;;;;;;;8.72;59.58;95023.69;5005984;28;20022;-79
2023/04/10 01:55:08;;;;;;;8.20;6.22;;;;;;;8.71;59.82;95018.59;4989282;28;20033;-78
2023/04/10 01:57:35;;;;;;;11.25;6.88;;;;;;;8.75;59.90;95025.56;5005544;28;20054;-78
2023/04/10 02:00:01;;;;;;;10.60;6.88;;;;;;;8.76;59.88;95035.31;5007413;28;20026;-79
2023/04/10 02:02:31;;;;;;;9.90;6.93;;;;;;;8.76;60.00;95037.28;5010002;28;20113;-79
2023/04/10 02:04:56;;;;;;;9.80;7.28;;;;;;;8.75;60.25;95033.00;5008358;28;20022;-78
2023/04/10 02:07:36;;;;;;;9.73;6.68;;;;;;;8.76;60.45;95037.28;5007334;28;20035;-79
2023/04/10 02:10:20;;;;;;;9.05;6.90;;;;;;;8.75;60.33;95025.56;5007332;28;20030;-79
2023/04/10 02:12:56;;;;;;;8.77;6.90;;;;;;;8.78;60.41;95021.22;5039061;28;20034;-79
2023/04/10 02:15:23;;;;;;;8.05;6.15;;;;;;;8.75;60.00;95019.31;5004482;28;20145;-78
2023/04/10 02:17:50;;;;;;;7.03;5.75;;;;;;;8.77;59.82;95012.22;5005997;28;20025;-78
2023/04/10 02:20:17;;;;;;;10.18;7.03;;;;;;;8.76;60.21;95010.66;5004858;28;20129;-78
2023/04/10 02:22:43;;;;;;;11.85;7.75;;;;;;;8.78;60.16;95011.00;5021672;28;20045;-80
2023/04/10 02:25:09;;;;;;;9.55;6.43;;;;;;;8.82;60.03;95012.91;5005075;28;20034;-79
2023/04/10 02:27:35;;;;;;;9.85;6.97;;;;;;;8.78;59.89;95008.28;5005277;28;20025;-79
2023/04/10 02:30:04;;;;;;;10.73;6.82;;;;;;;8.80;59.89;95012.56;5005196;28;20026;-79
2023/04/10 02:32:32;;;;;;;10.02;7.25;;;;;;;8.78;59.96;95013.00;5005053;28;20172;-79
2023/04/10 02:34:57;;;;;;;8.63;6.18;;;;;;;8.77;59.84;95001.25;5006736;28;20030;-79
2023/04/10 02:37:23;;;;;;;9.50;6.47;;;;;;;8.77;60.10;94998.50;5038080;28;20088;-79
2023/04/10 02:39:48;;;;;;;8.85;6.30;;;;;;;8.74;60.30;94993.09;5006793;28;20091;-80
2023/04/10 02:42:14;;;;;;;10.45;6.72;;;;;;;8.73;59.92;94991.56;5006036;28;20093;-79
2023/04/10 02:44:40;;;;;;;9.55;7.13;;;;;;;8.69;59.66;94988.09;5006166;28;20353;-79
2023/04/10 02:47:06;;;;;;;9.35;6.68;;;;;;;8.69;59.57;94988.09;5004885;28;20393;-77
2023/04/10 02:49:33;;;;;;;9.27;6.65;;;;;;;8.63;59.64;94985.09;5004739;28;20481;-78
2023/04/10 02:51:59;;;;;;;9.75;6.85;;;;;;;8.62;59.90;94988.25;5006528;28;20026;-81
2023/04/10 02:54:24;;;;;;;10.57;7.25;;;;;;;8.57;59.74;94984.03;5005773;28;20044;-78
2023/04/10 02:56:50;;;;;;;10.68;7.50;;;;;;;8.55;60.00;94997.41;5008150;28;20129;-77
2023/04/10 02:59:16;;;;;;;9.52;7.75;;;;;;;8.51;60.13;94983.75;5011954;28;20054;-78
2023/04/10 03:01:41;;;;;;;14.95;10.27;;;;;;;8.48;60.04;94978.34;5006092;28;20481;-78
2023/04/10 03:04:07;;;;;;;19.00;12.95;;;;;;;8.45;60.23;94979.97;5005523;28;20516;-78
2023/04/10 03:06:32;;;;;;;19.25;12.65;;;;;;;8.43;60.55;94981.56;5005871;28;20532;-78
2023/04/10 03:08:58;;;;;;;16.80;12.30;;;;;;;8.42;60.79;94982.78;5004749;28;20064;-78
2023/04/10 03:11:23;;;;;;;15.90;10.68;;;;;;;8.41;60.88;94982.00;5004052;28;20064;-78
2023/04/10 03:13:48;;;;;;;14.73;9.98;;;;;;;8.38;60.91;94982.09;5005994;28;20025;-78
2023/04/10 03:16:16;;;;;;;14.63;9.35;;;;;;;8.35;61.04;94988.38;5004111;28;20795;-80
2023/04/10 03:18:41;;;;;;;15.55;9.70;;;;;;;8.33;61.34;94994.28;5004462;28;20440;-80
2023/04/10 03:21:07;;;;;;;16.20;10.63;;;;;;;8.31;61.37;94987.66;5005541;28;20030;-79
2023/04/10 03:23:32;;;;;;;15.77;10.63;;;;;;;8.27;61.50;94992.44;5005631;28;20041;-79
2023/04/10 03:25:58;;;;;;;16.20;10.18;;;;;;;8.23;61.30;94992.50;5005862;28;20552;-80
2023/04/10 03:28:23;;;;;;;17.75;11.88;;;;;;;8.19;61.41;94989.81;5005062;28;20041;-80
2023/04/10 03:30:49;;;;;;;13.68;9.90;;;;;;;8.16;61.70;94998.88;5005756;28;20497;-80
2023/04/10 03:33:14;;;;;;;17.13;11.55;;;;;;;8.13;61.75;94996.97;5005203;28;20104;-78
2023/04/10 03:35:40;;;;;;;16.77;10.25;;;;;;;8.08;61.81;94988.47;5004171;28;20033;-78
2023/04/10 03:38:05;;;;;;;15.45;10.85;;;;;;;8.06;61.73;95002.59;5005501;28;20104;-80
2023/04/10 03:40:33;;;;;;;13.75;10.07;;;;;;;7.99;61.90;94987.06;5005303;28;20057;-79
2023/04/10 03:42:58;;;;;;;13.55;9.30;;;;;;;7.96;62.08;94992.59;5003948;28;20531;-80
2023/04/10 03:45:24;;;;;;;13.75;9.55;;;;;;;7.95;62.02;94991.81;5005205;28;20024;-80
2023/04/10 03:47:50;;;;;;;15.50;10.68;;;;;;;7.92;62.10;94997.38;5005559;28;20029;-78
2023/04/10 03:50:16;;;;;;;16.65;10.90;;;;;;;7.84;62.13;94988.50;5003368;28;20405;-80
2023/04/10 03:52:41;;;;;;;14.55;10.65;;;;;;;7.84;62.55;95006.88;5010660;28;20033;-79
2023/04/10 03:55:07;;;;;;;15.18;10.90;;;;;;;7.81;62.25;95003.03;5004945;28;20116;-80
2023/04/10 03:57:32;;;;;;;16.17;10.73;;;;;;;7.79;62.58;95005.41;5003481;28;20123;-78
2023/04/10 03:59:57;;;;;;;14.68;10.52;;;;;;;7.76;62.45;95017.19;5004873;28;20030;-77
2023/04/10 04:02:23;;;;;;;17.08;10.88;;;;;;;7.76;62.77;95008.22;5003565;28;20022;-80
2023/04/10 04:04:48;;;;;;;14.20;9.93;;;;;;;7.72;62.79;95019.19;5004827;28;20028;-80
2023/04/10 04:07:14;;;;;;;17.05;11.00;;;;;;;7.70;62.50;95011.41;5004870;28;20033;-78
2023/04/10 04:09:42;;;;;;;17.10;11.43;;;;;;;7.66;62.56;95013.44;5003601;28;20531;-80
2023/04/10 04:12:08;;;;;;;15.65;10.90;;;;;;;7.66;62.86;95012.66;5004940;28;20026;-79
2023/04/10 04:14:33;;;;;;;16.42;11.10;;;;;;;7.65;62.79;95014.63;5003397;28;20404;-79
2023/04/10 04:16:59;;;;;;;19.00;10.25;;;;;;;7.65;62.76;95016.59;5003275;28;20030;-80
2023/04/10 04:19:24;;;;;;;14.45;10.32;;;;;;;7.63;62.69;95018.97;5004748;28;20080;-81
2023/04/10 04:21:50;;;;;;;15.15;10.77;;;;;;;7.59;62.69;95010.81;5004629;28;20318;-80
2023/04/10 04:24:15;;;;;;;16.77;11.07;;;;;;;7.60;62.98;95017.06;5004462;28;20033;-79
2023/04/10 04:26:41;;;;;;;14.68;11.00;;;;;;;7.60;63.06;95017.84;5004789;28;20526;-79
2023/04/10 04:29:06;;;;;;;15.43;11.05;;;;;;;7.59;63.30;95008.09;5002745;28;20037;-79
2023/04/10 04:31:31;;;;;;;18.58;12.55;;;;;;;7.58;63.08;95014.75;5004532;28;20022;-79
2023/04/10 04:34:00;;;;;;;16.50;11.95;;;;;;;7.59;63.27;95023.72;5004216;28;20033;-79
2023/04/10 04:36:26;;;;;;;16.00;12.05;;;;;;;7.60;62.95;95023.31;5003103;28;20037;-79
2023/04/10 04:38:52;;;;;;;17.85;11.73;;;;;;;7.61;63.23;95026.81;5006845;28;20029;-79
2023/04/10 04:41:18;;;;;;;17.08;11.70;;;;;;;7.62;63.38;95023.66;5008923;28;20509;-79
2023/04/10 04:43:46;;;;;;;15.75;11.20;;;;;;;7.62;63.13;95023.66;5008579;28;20036;-78
2023/04/10 04:46:11;;;;;;;17.48;11.55;;;;;;;7.66;63.08;95029.84;5009715;28;20171;-78
2023/04/10 04:48:37;;;;;;;16.67;11.70;;;;;;;7.67;62.89;95034.13;5013505;28;20038;-79
2023/04/10 04:51:02;;;;;;;15.77;11.32;;;;;;;7.70;62.94;95030.56;5007988;28;20104;-78
2023/04/10 04:53:28;;;;;;;17.42;12.00;;;;;;;7.73;62.92;95031.69;5006873;28;20554;-79
2023/04/10 04:55:53;;;;;;;18.52;12.55;;;;;;;7.75;62.97;95031.31;5008113;28;20431;-78
2023/04/10 04:58:20;;;;;;;19.45;14.43;;;;;;;7.74;63.10;95035.97;5008363;28;20118;-78
2023/04/10 05:00:45;;;;;;;26.88;19.67;;;;;;;7.79;63.10;95040.97;5007830;28;20034;-80
2023/04/10 05:03:11;;;;;;;30.80;21.15;;;;;;;7.80;63.02;95034.34;5006248;28;20084;-79
2023/04/10 05:05:36;;;;;;;25.58;19.23;;;;;;;7.82;62.94;95048.38;5008355;28;20018;-79
2023/04/10 05:08:02;;;;;;;23.27;16.55;;;;;;;7.82;63.09;95045.63;5007789;28;20022;-80
2023/04/10 05:10:27;;;;;;;21.45;15.45;;;;;;;7.86;62.74;95048.31;5008167;28;20022;-80
2023/04/10 05:12:52;;;;;;;21.38;14.68;;;;;;;7.91;62.93;95045.06;5007595;28;20226;-80
2023/04/10 05:15:18;;;;;;;20.85;15.10;;;;;;;7.94;62.74;95049.72;5007863;28;20037;-78
2023/04/10 05:17:43;;;;;;;23.40;16.83;;;;;;;7.97;62.98;95049.69;5007525;28;20119;-78
2023/04/10 05:20:09;;;;;;;28.60;20.25;;;;;;;7.98;62.67;95048.50;5008095;28;20109;-79
2023/04/10 05:22:35;;;;;;;28.83;21.35;;;;;;;8.02;62.54;95044.91;5007266;28;20420;-78
2023/04/10 05:25:00;;;;;;;28.13;20.58;;;;;;;8.08;62.22;95049.47;5007601;28;20022;-78
2023/04/10 05:27:25;;;;;;;31.25;21.23;;;;;;;8.13;62.26;95050.97;5008112;28;20022;-78
2023/04/10 05:29:51;;;;;;;30.77;23.95;;;;;;;8.14;62.04;95042.34;5005596;28;20057;-80
2023/04/10 05:32:16;;;;;;;30.50;22.38;;;;;;;8.18;61.98;95054.00;5007823;28;20022;-78
2023/04/10 05:34:42;;;;;;;31.60;23.27;;;;;;;8.24;61.97;95044.09;5007313;28;20054;-80
2023/04/10 05:37:08;;;;;;;31.33;22.80;;;;;;;8.33;61.56;95053.75;5007534;28;20026;-80
2023/04/10 05:39:33;;;;;;;33.50;22.98;;;;;;;8.37;61.47;95049.00;5006148;28;20038;-79
2023/04/10 05:41:59;;;;;;;29.70;21.52;;;;;;;8.43;61.38;95048.13;5013831;28;20030;-79
2023/04/10 05:44:25;;;;;;;27.92;20.70;;;;;;;8.46;60.83;95043.75;5006370;28;20116;-80
2023/04/10 05:46:50;;;;;;;29.27;20.15;;;;;;;8.52;60.46;95053.81;5006979;28;20551;-79
2023/04/10 05:49:15;;;;;;;29.45;20.88;;;;;;;8.62;60.46;95051.28;5006172;28;20026;-81
2023/04/10 05:51:41;;;;;;;27.98;21.00;;;;;;;8.65;60.54;95053.16;5006706;28;20440;-81
2023/04/10 05:54:07;;;;;;;30.00;21.90;;;;;;;8.71;60.40;95052.25;5007565;28;20026;-79
2023/04/10 05:56:32;;;;;;;27.67;19.80;;;;;;;8.78;59.91;95057.63;5026194;28;20033;-79
2023/04/10 05:58:58;;;;;;;27.50;18.63;;;;;;;8.86;59.53;95047.28;5025595;28;20116;-80
2023/04/10 06:01:23;;;;;;;25.38;16.15;;;;;;;8.92;59.33;95059.28;5027228;28;20103;-79
2023/04/10 06:03:48;;;;;;;23.58;16.73;;;;;;;9.04;59.13;95060.59;5024661;28;20451;-80
2023/04/10 06:06:14;;;;;;;22.98;15.63;;;;;;;9.13;58.95;95058.06;5021433;28;20018;-80
2023/04/10 06:08:39;;;;;;;21.70;15.60;;;;;;;9.22;58.73;95054.75;5005755;28;20476;-83
2023/04/10 06:11:05;;;;;;;20.90;15.02;;;;;;;9.29;58.47;95058.13;5007372;28;20113;-80
2023/04/10 06:13:31;;;;;;;22.73;14.50;;;;;;;9.38;58.17;95054.00;5006816;28;20049;-78
2023/04/10 06:15:56;;;;;;;20.92;14.95;;;;;;;9.47;58.36;95054.22;5006995;28;20026;-79
2023/04/10 06:18:22;;;;;;;21.17;15.70;;;;;;;9.61;58.16;95055.84;5007121;28;20026;-78
2023/04/10 06:20:47;;;;;;;21.85;14.43;;;;;;;9.70;57.48;95048.56;5005698;28;20064;-78
2023/04/10 06:23:13;;;;;;;20.63;14.73;;;;;;;9.83;57.14;95049.44;5007523;28;20038;-79
2023/04/10 06:25:38;;;;;;;19.95;13.82;;;;;;;9.92;56.82;95039.78;5006642;28;20025;-80
2023/04/10 06:28:04;;;;;;;18.73;13.85;;;;;;;10.01;56.57;95037.22;5006813;28;20523;-79
2023/04/10 06:30:29;;;;;;;19.90;14.30;;;;;;;10.18;56.02;95040.72;5005210;28;20026;-81
2023/04/10 06:32:55;;;;;;;18.88;14.07;;;;;;;10.28;55.69;95046.00;5006674;28;20026;-80
2023/04/10 06:35:21;;;;;;;19.25;13.75;;;;;;;10.35;55.92;95039.53;5010607;28;20094;-79
2023/04/10 06:37:47;;;;;;;22.30;15.13;;;;;;;10.45;55.65;95049.47;5009528;28;20068;-79
2023/04/10 06:40:13;;;;;;;20.23;13.88;;;;;;;10.50;55.11;95042.69;5006474;28;20109;-81
2023/04/10 06:42:39;;;;;;;18.02;12.85;;;;;;;10.51;54.56;95055.22;5006626;28;20033;-80
2023/04/10 06:45:06;;;;;;;18.98;11.95;;;;;;;10.62;54.00;95044.72;5006504;28;20030;-80
2023/04/10 06:47:31;;;;;;;15.60;11.63;;;;;;;10.78;53.35;95052.91;5007595;28;20052;-80
2023/04/10 06:49:56;;;;;;;18.55;12.25;;;;;;;10.87;53.14;95047.53;5008040;28;20022;-83
2023/04/10 06:52:22;;;;;;;16.40;12.95;;;;;;;10.97;52.48;95042.94;5006478;28;20022;-80
2023/04/10 06:54:47;;;;;;;16.27;12.07;;;;;;;11.01;52.46;95054.63;5006642;28;20436;-83
2023/04/10 06:57:13;;;;;;;17.90;12.45;;;;;;;11.05;51.52;95049.78;5005978;28;20042;-79
2023/04/10 06:59:38;;;;;;;16.83;11.77;;;;;;;10.79;51.27;95051.69;5004464;28;20096;-79
2023/04/10 07:02:04;;;;;;;16.30;12.00;;;;;;;10.90;51.24;95060.41;5005681;28;20041;-82
2023/04/10 07:04:30;;;;;;;18.05;12.90;;;;;;;10.84;51.66;95062.16;5004093;28;20404;-82
2023/04/10 07:06:56;;;;;;;18.35;13.00;;;;;;;10.90;51.48;95054.91;5006094;28;20030;-83
2023/04/10 07:09:21;;;;;;;19.17;13.70;;;;;;;10.95;51.39;95048.09;5004335;28;20523;-83
2023/04/10 07:11:47;;;;;;;16.38;12.07;;;;;;;11.04;50.74;95045.47;5005833;28;20113;-80
2023/04/10 07:14:12;;;;;;;20.52;12.43;;;;;;;10.98;51.08;95052.72;4987623;28;20096;-83
2023/04/10 07:16:37;;;;;;;16.55;12.77;;;;;;;11.00;51.56;95050.31;5005824;28;20465;-81
2023/04/10 07:19:03;;;;;;;17.40;13.60;;;;;;;11.07;51.68;95060.34;5005393;28;20116;-80
2023/04/10 07:21:28;;;;;;;19.08;13.35;;;;;;;10.87;51.37;95058.53;5005721;28;20109;-80
2023/04/10 07:23:54;;;;;;;18.52;12.57;;;;;;;10.92;51.61;95056.47;5004158;28;20807;-80
2023/04/10 07:26:19;;;;;;;17.50;12.45;;;;;;;11.01;51.50;95059.31;5005095;28;20087;-82
2023/04/10 07:28:45;;;;;;;19.45;13.02;;;;;;;11.06;51.34;95062.31;5009022;28;20041;-79
2023/04/10 07:31:11;;;;;;;21.63;12.77;;;;;;;10.95;51.27;95066.56;5010810;28;20038;-83
2023/04/10 07:33:37;;;;;;;18.42;12.18;;;;;;;10.80;51.25;95053.22;5005848;28;20386;-79
2023/04/10 07:36:04;;;;;;;19.35;12.18;;;;;;;10.80;51.48;95061.47;5003724;28;20092;-80
2023/04/10 07:38:30;;;;;;;16.58;12.48;;;;;;;10.88;51.26;95060.06;5005679;28;20076;-80
2023/04/10 07:40:59;;;;;;;18.38;12.10;;;;;;;10.72;51.09;95062.09;5005085;28;20508;-80
2023/04/10 07:43:25;;;;;;;17.25;12.23;;;;;;;10.69;51.58;95061.00;5004980;28;20539;-81
2023/04/10 07:45:51;;;;;;;16.67;12.30;;;;;;;10.79;51.28;95057.19;5004278;28;20025;-81
2023/04/10 07:48:16;;;;;;;17.70;13.20;;;;;;;11.04;51.02;95066.72;5003275;28;20030;-81
2023/04/10 07:50:41;;;;;;;17.98;13.07;;;;;;;11.13;51.16;95070.38;4987621;28;20022;-82
2023/04/10 07:53:07;;;;;;;17.80;12.30;;;;;;;11.20;50.01;95060.38;5004702;28;20061;-80
2023/04/10 07:55:39;;;;;;;15.88;11.05;;;;;;;11.37;49.82;95059.06;5005292;28;20034;-82
2023/04/10 07:58:05;;;;;;;16.50;11.23;;;;;;;11.50;49.85;95062.59;5003539;28;20483;-80
2023/04/10 08:00:31;;;;;;;16.90;11.93;;;;;;;11.50;49.70;95051.59;5003844;28;20028;-81
2023/04/10 08:02:56;;;;;;;15.40;11.13;;;;;;;11.68;49.07;95040.78;5005011;28;20424;-81
2023/04/10 08:05:22;;;;;;;13.85;10.13;;;;;;;11.81;48.68;95046.31;5004542;28;20026;-82
2023/04/10 08:07:47;;;;;;;14.93;11.25;;;;;;;12.04;48.30;95050.69;5005315;28;20109;-82
2023/04/10 08:10:13;;;;;;;14.27;10.63;;;;;;;11.90;47.11;95045.66;5004528;28;20026;-79
2023/04/10 08:12:38;;;;;;;14.30;10.00;;;;;;;12.11;47.64;95049.72;5004175;28;20061;-81
2023/04/10 08:15:04;;;;;;;15.50;10.90;;;;;;;12.26;47.50;95047.25;5004526;28;20120;-80
2023/04/10 08:17:29;;;;;;;19.77;11.60;;;;;;;12.43;47.68;95045.88;5004883;28;20036;-84
2023/04/10 08:19:55;;;;;;;15.18;11.35;;;;;;;12.43;46.05;95049.41;5005023;28;20030;-80
2023/04/10 08:22:20;;;;;;;14.23;11.20;;;;;;;12.47;46.81;95044.53;5004489;28;20386;-79
2023/04/10 08:24:46;;;;;;;18.85;11.73;;;;;;;12.50;46.80;95040.09;5009360;28;20129;-77
2023/04/10 08:27:12;;;;;;;13.63;10.10;;;;;;;12.26;45.49;95038.97;5003252;28;20033;-77
2023/04/10 08:29:38;;;;;;;15.02;11.02;;;;;;;12.34;45.83;95030.03;5004657;28;20108;-79
2023/04/10 08:32:03;;;;;;;13.35;9.73;;;;;;;12.46;45.46;95037.47;5004238;28;20109;-79
2023/04/10 08:34:29;;;;;;;12.40;8.65;;;;;;;12.69;45.03;95041.03;5003373;28;20026;-79
2023/04/10 08:36:56;;;;;;;12.43;9.05;;;;;;;12.80;44.94;95044.19;5004657;28;20045;-78
2023/04/10 08:39:21;;;;;;;14.27;9.85;;;;;;;13.09;44.43;95037.63;5004568;28;20634;-78
2023/04/10 08:41:47;;;;;;;12.15;9.02;;;;;;;12.99;44.00;95045.09;5003515;28;20025;-79
2023/04/10 08:44:13;;;;;;;11.48;8.43;;;;;;;13.19;43.57;95033.69;5004379;28;20081;-78
2023/04/10 08:46:42;;;;;;;12.05;8.93;;;;;;;12.78;42.48;95032.81;5003396;28;20034;-79
2023/04/10 08:49:10;;;;;;;12.32;9.50;;;;;;;12.31;43.36;95027.38;5002915;28;20108;-81
2023/04/10 08:52:06;;;;;;;12.10;9.13;;;;;;;12.26;43.93;95031.47;5004438;28;20428;-79
2023/04/10 08:54:33;;;;;;;12.40;9.65;;;;;;;12.41;44.45;95031.78;5015521;28;20468;-82
2023/04/10 08:57:00;;;;;;;12.88;9.10;;;;;;;12.58;44.54;95033.13;5004426;28;20121;-79
2023/04/10 08:59:30;;;;;;;14.43;9.88;;;;;;;12.76;43.24;95030.50;4986708;28;20050;-78
2023/04/10 09:01:56;;;;;;;11.20;8.35;;;;;;;12.86;41.96;95025.84;5014836;28;20037;-79
2023/04/10 09:04:23;;;;;;;12.82;9.63;;;;;;;13.07;42.91;95026.25;5055584;28;20095;-80
2023/04/10 09:06:49;;;;;;;13.27;9.60;;;;;;;13.18;42.08;95032.91;5055831;28;20029;-80
2023/04/10 09:09:14;;;;;;;14.40;10.80;;;;;;;13.22;43.06;95025.31;5024437;28;20160;-80
2023/04/10 09:11:55;;;;;;;15.25;10.00;;;;;;;13.85;42.16;95023.28;5023816;28;20122;-79
2023/04/10 09:14:28;;;;;;;12.20;9.30;;;;;;;13.89;42.39;95020.38;5023592;28;20017;-81
2023/04/10 09:17:15;;;;;;;13.68;10.27;;;;;;;14.16;41.71;95025.19;5024345;28;20034;-80
2023/04/10 09:19:42;;;;;;;15.55;9.60;;;;;;;14.27;41.02;95017.22;5028024;28;20021;-81
2023/04/10 09:22:07;;;;;;;15.60;8.82;;;;;;;14.30;39.64;95030.91;5057246;28;20029;-79
2023/04/10 09:24:39;;;;;;;15.18;9.25;;;;;;;14.21;38.75;95016.28;5024829;28;20022;-78
2023/04/10 09:27:05;;;;;;;14.45;9.38;;;;;;;14.24;39.15;95018.16;5027494;28;20037;-80
2023/04/10 09:29:44;;;;;;;12.98;9.05;;;;;;;14.27;38.19;95023.53;5016538;28;20101;-89
2023/04/10 09:32:11;;;;;;;12.73;9.52;;;;;;;14.22;38.75;95021.38;5059466;28;20033;-86
2023/04/10 09:34:57;;;;;;;12.75;9.38;;;;;;;14.22;38.72;95017.81;5059430;28;20033;-83
2023/04/10 09:37:30;;;;;;;12.77;9.27;;;;;;;14.18;39.80;95015.22;5058496;28;20477;-83
2023/04/10 09:39:56;;;;;;;16.08;10.23;;;;;;;14.12;40.39;95013.53;5059572;28;20492;-78
2023/04/10 09:42:36;;;;;;;10.57;9.48;;;;;;;14.13;40.53;95015.84;5025796;28;20036;-77
2023/04/10 09:45:02;;;;;;;12.00;9.60;;;;;;;14.13;40.45;95017.81;5041787;28;20540;-80
2023/04/10 09:47:28;;;;;;;10.77;9.25;;;;;;;13.97;40.55;95018.88;5025873;28;20029;-78
2023/04/10 09:49:55;;;;;;;11.50;9.30;;;;;;;14.18;43.03;95011.69;5058708;28;20491;-79
2023/04/10 09:52:28;;;;;;;13.30;10.45;;;;;;;14.42;40.69;95022.94;5025713;28;20033;-78
2023/04/10 09:55:07;;;;;;;11.30;9.27;;;;;;;14.31;40.61;95015.09;5026815;28;20025;-79
2023/04/10 09:57:34;;;;;;;11.73;8.95;;;;;;;14.33;40.34;95016.16;5026349;28;20049;-81
2023/04/10 10:00:04;;;;;;;13.07;9.43;;;;;;;14.29;40.45;95012.78;5059055;28;20033;-76
2023/04/10 10:02:31;;;;;;;14.10;9.73;;;;;;;14.34;40.66;95012.19;5025196;28;20034;-75
2023/04/10 10:04:59;;;;;;;12.75;10.15;;;;;;;14.25;40.83;95014.94;5058739;28;20188;-77
2023/04/10 10:07:25;;;;;;;10.82;9.00;;;;;;;14.33;40.34;95015.38;5025225;28;20395;-78
2023/04/10 10:09:51;;;;;;;14.60;10.38;;;;;;;14.55;40.28;95009.75;5026891;28;20025;-77
2023/04/10 10:12:28;;;;;;;12.40;9.50;;;;;;;14.75;39.94;95010.06;5025265;28;20093;-79
2023/04/10 10:15:00;;;;;;;11.35;8.85;;;;;;;14.74;39.34;95007.75;5067088;28;20490;-81
2023/04/10 10:17:30;;;;;;;12.50;10.43;;;;;;;14.57;40.32;94999.00;5059090;28;20033;-81
2023/04/10 10:20:03;;;;;;;10.70;8.52;;;;;;;14.46;40.35;95004.97;5024943;28;20029;-85
2023/04/10 10:22:29;;;;;;;15.20;9.40;;;;;;;14.33;40.67;94994.03;5043741;28;20025;-83
2023/04/10 10:24:55;;;;;;;11.77;9.50;;;;;;;14.33;40.72;94996.03;5058363;28;20068;-85
2023/04/10 10:27:22;;;;;;;13.68;9.30;;;;;;;14.23;40.58;94992.50;5058855;28;20030;-79
2023/04/10 10:29:48;;;;;;;14.07;10.02;;;;;;;14.26;40.63;94997.09;5040986;28;20120;-81
2023/04/10 10:32:16;;;;;;;11.88;9.70;;;;;;;14.17;40.63;94991.59;5024798;28;20041;-81
2023/04/10 10:34:43;;;;;;;12.45;9.70;;;;;;;14.09;40.90;94990.31;5057699;28;20037;-81
2023/04/10 10:37:08;;;;;;;10.05;8.23;;;;;;;14.08;40.12;94984.03;5057835;28;20029;-81
2023/04/10 10:40:03;;;;;;;10.32;8.90;;;;;;;14.02;40.12;94982.34;5026648;28;20043;-83
2023/04/10 10:42:56;;;;;;;12.93;8.60;;;;;;;13.86;40.37;94980.59;5024662;28;20021;-80
2023/04/10 10:45:33;;;;;;;11.13;8.40;;;;;;;14.14;40.15;94981.44;5025980;28;20535;-80
2023/04/10 10:47:59;;;;;;;10.80;8.55;;;;;;;14.10;39.93;94975.28;5058033;28;20033;-79
2023/04/10 10:51:03;;;;;;;9.05;8.00;;;;;;;14.15;39.14;94966.38;5040749;28;20033;-84
2023/04/10 10:53:32;;;;;;;11.00;8.57;;;;;;;14.30;38.47;94963.78;5026302;28;20534;-82
2023/04/10 10:55:57;;;;;;;11.32;8.48;;;;;;;14.41;37.94;94958.56;5025806;28;20029;-84
2023/04/10 10:58:45;;;;;;;8.45;6.80;;;;;;;14.63;36.72;94961.19;5056979;28;20103;-80
2023/04/10 11:01:11;;;;;;;8.68;7.25;;;;;;;14.60;36.63;94946.28;5057945;28;20027;-80
2023/04/10 11:03:36;;;;;;;9.05;7.05;;;;;;;14.47;36.99;94948.44;5056931;28;20113;-81
2023/04/10 11:06:15;;;;;;;10.52;7.30;;;;;;;15.32;36.25;94937.50;5057571;28;20036;-82
2023/04/10 11:08:43;;;;;;;9.68;7.90;;;;;;;15.34;36.91;94935.78;5027016;28;20063;-78
2023/04/10 11:11:22;;;;;;;11.85;8.13;;;;;;;16.03;36.45;94941.59;5026502;28;20464;-78
2023/04/10 11:13:56;;;;;;;10.98;8.50;;;;;;;15.97;36.35;94935.94;5012360;28;20067;-79
2023/04/10 11:16:23;;;;;;;11.00;8.90;;;;;;;16.03;36.22;94936.81;5005588;28;20030;-79
2023/04/10 11:18:49;;;;;;;13.05;8.88;;;;;;;16.14;36.45;94939.06;5004376;28;20026;-79
2023/04/10 11:21:18;;;;;;;9.90;7.97;;;;;;;16.13;35.73;94945.84;5006040;28;20044;-78
2023/04/10 11:24:02;;;;;;;9.00;7.75;;;;;;;16.82;34.61;94932.81;4987955;28;20034;-79
2023/04/10 11:29:04;;;;;;;8.77;7.25;;;;;;;16.86;33.48;94936.94;5004896;28;20101;-77
2023/04/10 11:31:31;;;;;;;8.57;6.90;;;;;;;16.95;32.63;94928.50;4987941;28;20026;-75